Pagrindinis puslapis
METAR-TAF:

METAR-TAF

Oro uostai :

Kantas, Vietnamas

platuma: 10-05-07N, ilguma: 105-42-43E, Aukštis: 3 m

Dabartinis oras

Ataskaita buvo paskelbta 20 minutes, ne 14:30 UTC
Ramus vėjas
Temperatūra 26°C
Drėgmė 94%
Slėgis 1012 hPa
Matomumas 10 km arba daugiau
Mažai debesys ne aukštis 1500 ft
Išsisklaidę debesys ne aukštis 4000 ft

METAR: VVCT 291430Z 00000KT 9999 FEW015 SCT040 26/25 Q1012 NOSIG

Laikas: 21:50 (14:50 UTC)

Prognozė

Ataskaita buvo paskelbta 3 valandos ir 50 minutes, ne 11:00 UTC
Prognozė galioja nuo 29 metu 12 UTC su 30 metu 12 UTC
Vėjas 8 kt iš Pietvakarių
Matomumas 10 km arba daugiau
Išsisklaidę debesys ne aukštis 1500 ft
Laikinai
nuo 30 metu 07 UTC su 30 metu 11 UTC
Vėjas 16 kt iš Pietvakarių su gūsio iki 28 kt
Matomumas: 3000 m
Su prošvaistėmis ne aukštis 1300 ft
Išsisklaidę debesys ne aukštis 1500 ft, Liūtiniai kamuoliniai debesys.
perkūnija, lietus

TAF: VVCT 291100Z 2912/3012 22008KT 9999 SCT015 TEMPO 3007/3011 23016G28KT 3000 TSRA BKN013 SCT015CB

Orai ataskaitas ir orų prognozės (METAR, TAF).

turimą stotys yra geltonos ir raudonos taškus žemėlapyje.

Perkelti pele per norėdami pamatyti stoties vardą.

Tada spustelėkite, norėdami matyti oro stebėjimo ir prognozės.

Norėdami pakeisti žemėlapį: spustelėkite ant žalios mygtukų su juodo kryžiaus žemyn,; žalią mygtuką su brūkšneliu, jei norite nutolinti; arba žalių rodyklių gretimoms žemėlapius.


METAR-TAF: